PWSweather.com
Personal Weather Stations
Station Observations
ILOMBARD30
LodiIT 26900

LodiIT 26900

Lat: 45.2993, Lon: 9.5207

Elevation: 255

Station Type: Davis Vantege Pro2 Plus 24h

http://www.meteo-iw2gob.it

Latest ConditionsUpdated 6:45:01 PM GMT+01:01 Sunday, Jan 26, 2020
Currently Today's Max Today's Min Today's Average
Temperature 45.1°F7.3°C 49.3°F9.6°C 38.8°F3.8°C 43.3°F6.3°C
Dew Point 40.6°F4.8°C 42.1°F5.6°C 35.0°F1.7°C 38.2°F3.4°C
Winds Calm Calm 6.9 mph -11.1 kmh - - 2.3 mph 3.7 kmh
Wind Gusts -- 10.4 mph16.7 kmh - -
Humidity 84% 87% 71% 82%
Pressure 30.08 in1018.6 mb 30.18 in1022.0 mb 30.07 in1018.3 mb -
Precipitation - 0.01 in0.3 mm - -
Hour Temp Dew Point Humidity Winds Wind Gusts Pressure Precip Precip Rate Daily Precip Total
06:45 PM 45.1°F7.3°C 40.6°F4.8°C 84% Calm Calm -- 30.08 in1018.6 mb - 0.00 in0.0 mm 0.01 in0.3 mm
06:40 PM 45.1°F7.3°C 40.6°F4.8°C 84% Calm Calm -- 30.08 in1018.6 mb - 0.00 in0.0 mm 0.01 in0.3 mm
06:35 PM 45.2°F7.3°C 40.3°F4.6°C 83% Calm Calm -- 30.08 in1018.6 mb - 0.00 in0.0 mm 0.01 in0.3 mm
06:30 PM 45.2°F7.3°C 40.3°F4.6°C 83% Calm Calm -- 30.08 in1018.6 mb - 0.00 in0.0 mm 0.01 in0.3 mm
06:25 PM 45.3°F7.4°C 40.5°F4.7°C 83% Calm Calm -- 30.08 in1018.6 mb - 0.00 in0.0 mm 0.01 in0.3 mm
06:20 PM 45.4°F7.4°C 40.6°F4.8°C 83% Calm Calm -- 30.08 in1018.6 mb - 0.00 in0.0 mm 0.01 in0.3 mm
06:15 PM 45.5°F7.5°C 40.7°F4.8°C 83% Calm Calm -- 30.08 in1018.6 mb - 0.00 in0.0 mm 0.01 in0.3 mm
06:10 PM 45.6°F7.6°C 40.8°F4.9°C 83% 1.2 mph WSW1.9 kmh WSW 2.3 mph3.7 kmh 30.08 in1018.6 mb - 0.00 in0.0 mm 0.01 in0.3 mm
06:05 PM 45.8°F7.7°C 40.6°F4.8°C 82% Calm Calm -- 30.08 in1018.6 mb - 0.00 in0.0 mm 0.01 in0.3 mm
06:00 PM 45.9°F7.7°C 40.7°F4.8°C 82% 1.2 mph WSW1.9 kmh WSW 2.3 mph3.7 kmh 30.08 in1018.6 mb - 0.00 in0.0 mm 0.01 in0.3 mm
05:55 PM 46.1°F7.8°C 40.9°F4.9°C 82% Calm Calm -- 30.08 in1018.6 mb - 0.00 in0.0 mm 0.01 in0.3 mm
05:50 PM 46.2°F7.9°C 41.0°F5.0°C 82% Calm Calm -- 30.08 in1018.6 mb - 0.00 in0.0 mm 0.01 in0.3 mm
05:45 PM 46.3°F7.9°C 41.1°F5.1°C 82% Calm Calm -- 30.08 in1018.6 mb - 0.00 in0.0 mm 0.01 in0.3 mm
05:40 PM 46.5°F8.1°C 41.0°F5.0°C 81% Calm Calm -- 30.08 in1018.6 mb - 0.00 in0.0 mm 0.01 in0.3 mm
05:35 PM 46.7°F8.2°C 41.2°F5.1°C 81% Calm Calm -- 30.08 in1018.6 mb - 0.00 in0.0 mm 0.01 in0.3 mm
05:30 PM 46.9°F8.3°C 41.3°F5.2°C 81% Calm Calm -- 30.07 in1018.3 mb - 0.00 in0.0 mm 0.01 in0.3 mm
05:25 PM 47.0°F8.3°C 41.1°F5.1°C 80% Calm Calm 3.5 mph5.6 kmh 30.07 in1018.3 mb - 0.00 in0.0 mm 0.01 in0.3 mm
05:20 PM 47.2°F8.4°C 41.3°F5.2°C 80% Calm Calm -- 30.07 in1018.3 mb - 0.00 in0.0 mm 0.01 in0.3 mm
05:15 PM 47.4°F8.6°C 41.5°F5.3°C 80% 2.3 mph SW3.7 kmh SW 3.5 mph5.6 kmh 30.07 in1018.3 mb - 0.00 in0.0 mm 0.01 in0.3 mm
05:10 PM 47.6°F8.7°C 41.8°F5.4°C 80% 2.3 mph SW3.7 kmh SW 3.5 mph5.6 kmh 30.07 in1018.3 mb - 0.00 in0.0 mm 0.01 in0.3 mm
05:05 PM 47.9°F8.8°C 41.7°F5.4°C 79% 3.5 mph SW5.6 kmh SW 3.5 mph5.6 kmh 30.07 in1018.3 mb - 0.00 in0.0 mm 0.01 in0.3 mm
05:00 PM 48.1°F8.9°C 41.9°F5.5°C 79% 2.3 mph WSW3.7 kmh WSW 3.5 mph5.6 kmh 30.07 in1018.3 mb - 0.00 in0.0 mm 0.01 in0.3 mm
04:55 PM 48.2°F9.0°C 42.0°F5.6°C 79% 2.3 mph WSW3.7 kmh WSW 3.5 mph5.6 kmh 30.07 in1018.3 mb - 0.00 in0.0 mm 0.01 in0.3 mm
04:50 PM 48.3°F9.1°C 42.1°F5.6°C 79% 2.3 mph WSW3.7 kmh WSW 3.5 mph5.6 kmh 30.08 in1018.6 mb - 0.00 in0.0 mm 0.01 in0.3 mm
04:45 PM 48.4°F9.1°C 41.9°F5.5°C 78% 1.2 mph WSW1.9 kmh WSW 3.5 mph5.6 kmh 30.08 in1018.6 mb - 0.00 in0.0 mm 0.01 in0.3 mm
04:40 PM 48.5°F9.2°C 42.0°F5.6°C 78% 1.2 mph WSW1.9 kmh WSW 3.5 mph5.6 kmh 30.08 in1018.6 mb - 0.00 in0.0 mm 0.01 in0.3 mm
04:35 PM 48.6°F9.2°C 42.0°F5.6°C 78% 2.3 mph WSW3.7 kmh WSW 3.5 mph5.6 kmh 30.08 in1018.6 mb - 0.00 in0.0 mm 0.01 in0.3 mm
04:30 PM 48.7°F9.3°C 42.1°F5.6°C 78% 1.2 mph SW1.9 kmh SW 3.5 mph5.6 kmh 30.08 in1018.6 mb - 0.00 in0.0 mm 0.01 in0.3 mm
04:25 PM 48.8°F9.3°C 41.9°F5.5°C 77% 2.3 mph WSW3.7 kmh WSW 3.5 mph5.6 kmh 30.08 in1018.6 mb - 0.00 in0.0 mm 0.01 in0.3 mm
04:20 PM 48.9°F9.4°C 42.0°F5.6°C 77% 3.5 mph SW5.6 kmh SW 5.8 mph9.3 kmh 30.09 in1019.0 mb - 0.00 in0.0 mm 0.01 in0.3 mm
04:15 PM 49.0°F9.4°C 42.1°F5.6°C 77% 3.5 mph WSW5.6 kmh WSW 6.9 mph11.1 kmh 30.09 in1019.0 mb - 0.00 in0.0 mm 0.01 in0.3 mm
04:10 PM 49.1°F9.5°C 41.9°F5.5°C 76% 3.5 mph WSW5.6 kmh WSW 4.6 mph7.4 kmh 30.09 in1019.0 mb - 0.00 in0.0 mm 0.01 in0.3 mm
04:05 PM 49.2°F9.6°C 42.0°F5.6°C 76% 4.6 mph SW7.4 kmh SW 6.9 mph11.1 kmh 30.09 in1019.0 mb - 0.00 in0.0 mm 0.01 in0.3 mm
04:00 PM 49.2°F9.6°C 42.0°F5.6°C 76% 5.8 mph SW9.3 kmh SW 8.1 mph13.0 kmh 30.09 in1019.0 mb - 0.00 in0.0 mm 0.01 in0.3 mm
03:55 PM 49.2°F9.6°C 41.6°F5.3°C 75% 4.6 mph SW7.4 kmh SW 4.6 mph7.4 kmh 30.09 in1019.0 mb - 0.00 in0.0 mm 0.01 in0.3 mm
03:50 PM 49.2°F9.6°C 41.3°F5.2°C 74% 4.6 mph WSW7.4 kmh WSW 4.6 mph7.4 kmh 30.09 in1019.0 mb - 0.00 in0.0 mm 0.01 in0.3 mm
03:45 PM 49.3°F9.6°C 41.3°F5.2°C 74% 4.6 mph WSW7.4 kmh WSW 5.8 mph9.3 kmh 30.09 in1019.0 mb - 0.00 in0.0 mm 0.01 in0.3 mm
03:40 PM 49.3°F9.6°C 41.0°F5.0°C 73% 4.6 mph WSW7.4 kmh WSW 5.8 mph9.3 kmh 30.09 in1019.0 mb - 0.00 in0.0 mm 0.01 in0.3 mm
03:35 PM 49.3°F9.6°C 40.7°F4.8°C 72% 4.6 mph WSW7.4 kmh WSW 5.8 mph9.3 kmh 30.09 in1019.0 mb - 0.00 in0.0 mm 0.01 in0.3 mm
03:30 PM 49.3°F9.6°C 40.7°F4.8°C 72% 4.6 mph SW7.4 kmh SW 8.1 mph13.0 kmh 30.09 in1019.0 mb - 0.00 in0.0 mm 0.01 in0.3 mm
03:25 PM 49.3°F9.6°C 40.7°F4.8°C 72% 4.6 mph SW7.4 kmh SW 9.2 mph14.8 kmh 30.09 in1019.0 mb - 0.00 in0.0 mm 0.01 in0.3 mm
03:20 PM 49.2°F9.6°C 40.9°F4.9°C 73% 3.5 mph SW5.6 kmh SW 4.6 mph7.4 kmh 30.09 in1019.0 mb - 0.00 in0.0 mm 0.01 in0.3 mm
03:15 PM 49.3°F9.6°C 41.4°F5.2°C 74% 3.5 mph WSW5.6 kmh WSW 3.5 mph5.6 kmh 30.09 in1019.0 mb - 0.00 in0.0 mm 0.01 in0.3 mm
03:10 PM 49.3°F9.6°C 41.0°F5.0°C 73% 2.3 mph WSW3.7 kmh WSW 5.8 mph9.3 kmh 30.09 in1019.0 mb - 0.00 in0.0 mm 0.01 in0.3 mm
03:05 PM 49.2°F9.6°C 40.9°F4.9°C 73% 3.5 mph WSW5.6 kmh WSW 3.5 mph5.6 kmh 30.09 in1019.0 mb - 0.00 in0.0 mm 0.01 in0.3 mm
03:00 PM 49.1°F9.5°C 41.2°F5.1°C 74% 3.5 mph SW5.6 kmh SW 4.6 mph7.4 kmh 30.09 in1019.0 mb - 0.00 in0.0 mm 0.01 in0.3 mm
02:55 PM 49.0°F9.4°C 40.7°F4.8°C 73% 3.5 mph SW5.6 kmh SW 3.5 mph5.6 kmh 30.10 in1019.3 mb - 0.00 in0.0 mm 0.01 in0.3 mm
02:50 PM 48.9°F9.4°C 41.0°F5.0°C 74% 3.5 mph WSW5.6 kmh WSW 5.8 mph9.3 kmh 30.10 in1019.3 mb - 0.00 in0.0 mm 0.01 in0.3 mm
02:45 PM 48.8°F9.3°C 41.2°F5.1°C 75% 4.6 mph WSW7.4 kmh WSW 6.9 mph11.1 kmh 30.10 in1019.3 mb - 0.00 in0.0 mm 0.01 in0.3 mm
02:40 PM 48.7°F9.3°C 40.8°F4.9°C 74% 5.8 mph WSW9.3 kmh WSW 6.9 mph11.1 kmh 30.10 in1019.3 mb - 0.00 in0.0 mm 0.01 in0.3 mm
02:35 PM 49.0°F9.4°C 40.7°F4.8°C 73% 5.8 mph WSW9.3 kmh WSW 6.9 mph11.1 kmh 30.10 in1019.3 mb - 0.00 in0.0 mm 0.01 in0.3 mm
02:30 PM 48.8°F9.3°C 40.9°F4.9°C 74% 4.6 mph SW7.4 kmh SW 5.8 mph9.3 kmh 30.10 in1019.3 mb - 0.00 in0.0 mm 0.01 in0.3 mm
02:25 PM 48.7°F9.3°C 40.4°F4.7°C 73% 3.5 mph W5.6 kmh W 6.9 mph11.1 kmh 30.10 in1019.3 mb - 0.00 in0.0 mm 0.01 in0.3 mm
02:20 PM 48.7°F9.3°C 40.8°F4.9°C 74% 4.6 mph WSW7.4 kmh WSW 5.8 mph9.3 kmh 30.10 in1019.3 mb - 0.00 in0.0 mm 0.01 in0.3 mm
02:15 PM 48.6°F9.2°C 40.3°F4.6°C 73% 4.6 mph W7.4 kmh W 5.8 mph9.3 kmh 30.11 in1019.6 mb - 0.00 in0.0 mm 0.01 in0.3 mm
02:10 PM 48.6°F9.2°C 40.0°F4.4°C 72% 5.8 mph W9.3 kmh W 8.1 mph13.0 kmh 30.11 in1019.6 mb - 0.00 in0.0 mm 0.01 in0.3 mm
02:05 PM 48.6°F9.2°C 40.3°F4.6°C 73% 5.8 mph WSW9.3 kmh WSW 6.9 mph11.1 kmh 30.11 in1019.6 mb - 0.00 in0.0 mm 0.01 in0.3 mm
02:00 PM 48.5°F9.2°C 40.3°F4.6°C 73% 5.8 mph WSW9.3 kmh WSW 6.9 mph11.1 kmh 30.11 in1019.6 mb - 0.00 in0.0 mm 0.01 in0.3 mm
01:55 PM 48.5°F9.2°C 40.3°F4.6°C 73% 5.8 mph WSW9.3 kmh WSW 8.1 mph13.0 kmh 30.12 in1020.0 mb - 0.00 in0.0 mm 0.01 in0.3 mm
01:50 PM 48.8°F9.3°C 40.5°F4.7°C 73% 6.9 mph WSW11.1 kmh WSW 9.2 mph14.8 kmh 30.12 in1020.0 mb - 0.00 in0.0 mm 0.01 in0.3 mm
01:45 PM 48.8°F9.3°C 40.9°F4.9°C 74% 3.5 mph WSW5.6 kmh WSW 6.9 mph11.1 kmh 30.12 in1020.0 mb - 0.00 in0.0 mm 0.01 in0.3 mm
01:40 PM 48.7°F9.3°C 39.7°F4.3°C 71% 4.6 mph WSW7.4 kmh WSW 6.9 mph11.1 kmh 30.12 in1020.0 mb - 0.00 in0.0 mm 0.01 in0.3 mm
01:35 PM 48.6°F9.2°C 40.0°F4.4°C 72% 3.5 mph W5.6 kmh W 3.5 mph5.6 kmh 30.12 in1020.0 mb - 0.00 in0.0 mm 0.01 in0.3 mm
01:30 PM 48.5°F9.2°C 39.9°F4.4°C 72% 6.9 mph WSW11.1 kmh WSW 10.4 mph16.7 kmh 30.12 in1020.0 mb - 0.00 in0.0 mm 0.01 in0.3 mm
01:25 PM 48.3°F9.1°C 39.7°F4.3°C 72% 3.5 mph W5.6 kmh W 5.8 mph9.3 kmh 30.12 in1020.0 mb - 0.00 in0.0 mm 0.01 in0.3 mm
01:20 PM 48.3°F9.1°C 40.0°F4.4°C 73% 5.8 mph WSW9.3 kmh WSW 6.9 mph11.1 kmh 30.12 in1020.0 mb - 0.00 in0.0 mm 0.01 in0.3 mm
01:15 PM 48.4°F9.1°C 39.8°F4.3°C 72% 6.9 mph SW11.1 kmh SW 9.2 mph14.8 kmh 30.12 in1020.0 mb - 0.00 in0.0 mm 0.01 in0.3 mm
01:10 PM 48.5°F9.2°C 40.6°F4.8°C 74% 4.6 mph W7.4 kmh W 8.1 mph13.0 kmh 30.12 in1020.0 mb - 0.00 in0.0 mm 0.01 in0.3 mm
01:05 PM 48.4°F9.1°C 40.1°F4.5°C 73% 4.6 mph SW7.4 kmh SW 9.2 mph14.8 kmh 30.12 in1020.0 mb - 0.00 in0.0 mm 0.01 in0.3 mm
01:00 PM 48.1°F8.9°C 39.9°F4.4°C 73% 4.6 mph WSW7.4 kmh WSW 8.1 mph13.0 kmh 30.12 in1020.0 mb - 0.00 in0.0 mm 0.01 in0.3 mm
12:55 PM 48.2°F9.0°C 39.9°F4.4°C 73% 6.9 mph W11.1 kmh W 10.4 mph16.7 kmh 30.13 in1020.3 mb - 0.00 in0.0 mm 0.01 in0.3 mm
12:50 PM 47.8°F8.8°C 39.9°F4.4°C 74% 4.6 mph WSW7.4 kmh WSW 5.8 mph9.3 kmh 30.13 in1020.3 mb - 0.00 in0.0 mm 0.01 in0.3 mm
12:45 PM 47.6°F8.7°C 39.7°F4.3°C 74% 4.6 mph WSW7.4 kmh WSW 6.9 mph11.1 kmh 30.13 in1020.3 mb - 0.00 in0.0 mm 0.01 in0.3 mm
12:40 PM 47.7°F8.7°C 40.5°F4.7°C 76% 4.6 mph WSW7.4 kmh WSW 9.2 mph14.8 kmh 30.13 in1020.3 mb - 0.00 in0.0 mm 0.01 in0.3 mm
12:35 PM 47.3°F8.5°C 39.8°F4.3°C 75% 6.9 mph W11.1 kmh W 6.9 mph11.1 kmh 30.14 in1020.7 mb - 0.00 in0.0 mm 0.01 in0.3 mm
12:30 PM 46.9°F8.3°C 39.7°F4.3°C 76% 4.6 mph WSW7.4 kmh WSW 4.6 mph7.4 kmh 30.14 in1020.7 mb - 0.00 in0.0 mm 0.01 in0.3 mm
12:25 PM 46.8°F8.2°C 40.6°F4.8°C 79% 5.8 mph WSW9.3 kmh WSW 9.2 mph14.8 kmh 30.14 in1020.7 mb - 0.00 in0.0 mm 0.01 in0.3 mm
12:20 PM 46.4°F8.0°C 40.2°F4.6°C 79% 3.5 mph W5.6 kmh W 3.5 mph5.6 kmh 30.14 in1020.7 mb - 0.00 in0.0 mm 0.01 in0.3 mm
12:15 PM 46.3°F7.9°C 40.1°F4.5°C 79% 3.5 mph WSW5.6 kmh WSW 8.1 mph13.0 kmh 30.14 in1020.7 mb - 0.00 in0.0 mm 0.01 in0.3 mm
12:10 PM 46.0°F7.8°C 39.5°F4.2°C 78% 5.8 mph W9.3 kmh W 6.9 mph11.1 kmh 30.14 in1020.7 mb - 0.00 in0.0 mm 0.01 in0.3 mm
12:05 PM 45.9°F7.7°C 40.0°F4.4°C 80% 4.6 mph WSW7.4 kmh WSW 10.4 mph16.7 kmh 30.14 in1020.7 mb - 0.00 in0.0 mm 0.01 in0.3 mm
12:00 PM 45.8°F7.7°C 39.9°F4.4°C 80% 6.9 mph WSW11.1 kmh WSW 8.1 mph13.0 kmh 30.15 in1021.0 mb - 0.00 in0.0 mm 0.01 in0.3 mm
11:55 AM 45.8°F7.7°C 40.0°F4.4°C 80% 5.8 mph WSW9.3 kmh WSW 8.1 mph13.0 kmh 30.15 in1021.0 mb - 0.00 in0.0 mm 0.01 in0.3 mm
11:50 AM 45.6°F7.6°C 40.4°F4.7°C 82% 2.3 mph WSW3.7 kmh WSW 3.5 mph5.6 kmh 30.15 in1021.0 mb - 0.00 in0.0 mm 0.01 in0.3 mm
11:45 AM 45.1°F7.3°C 39.6°F4.2°C 81% 5.8 mph W9.3 kmh W 5.8 mph9.3 kmh 30.15 in1021.0 mb - 0.00 in0.0 mm 0.01 in0.3 mm
11:40 AM 44.9°F7.2°C 39.4°F4.1°C 81% 6.9 mph WSW11.1 kmh WSW 10.4 mph16.7 kmh 30.15 in1021.0 mb - 0.00 in0.0 mm 0.01 in0.3 mm
11:35 AM 45.1°F7.3°C 40.2°F4.6°C 83% 4.6 mph WSW7.4 kmh WSW 8.1 mph13.0 kmh 30.15 in1021.0 mb - 0.00 in0.0 mm 0.01 in0.3 mm
11:30 AM 44.7°F7.1°C 39.9°F4.4°C 83% 4.6 mph WSW7.4 kmh WSW 5.8 mph9.3 kmh 30.16 in1021.3 mb - 0.00 in0.0 mm 0.01 in0.3 mm
11:25 AM 44.3°F6.8°C 39.7°F4.3°C 84% 3.5 mph WSW5.6 kmh WSW 3.5 mph5.6 kmh 30.16 in1021.3 mb - 0.00 in0.0 mm 0.01 in0.3 mm
11:20 AM 44.0°F6.7°C 39.5°F4.2°C 84% 4.6 mph W7.4 kmh W 4.6 mph7.4 kmh 30.16 in1021.3 mb - 0.00 in0.0 mm 0.01 in0.3 mm
11:15 AM 43.6°F6.4°C 39.4°F4.1°C 85% 4.6 mph WSW7.4 kmh WSW 4.6 mph7.4 kmh 30.16 in1021.3 mb - 0.00 in0.0 mm 0.01 in0.3 mm
11:10 AM 43.4°F6.3°C 39.5°F4.2°C 86% 4.6 mph WSW7.4 kmh WSW 8.1 mph13.0 kmh 30.16 in1021.3 mb - 0.00 in0.0 mm 0.01 in0.3 mm
11:05 AM 43.0°F6.1°C 39.1°F3.9°C 86% 5.8 mph WSW9.3 kmh WSW 6.9 mph11.1 kmh 30.16 in1021.3 mb - 0.00 in0.0 mm 0.01 in0.3 mm
11:00 AM 43.0°F6.1°C 39.1°F3.9°C 86% 5.8 mph WSW9.3 kmh WSW 8.1 mph13.0 kmh 30.16 in1021.3 mb - 0.00 in0.0 mm 0.01 in0.3 mm
10:55 AM 42.7°F5.9°C 39.1°F3.9°C 87% 4.6 mph WSW7.4 kmh WSW 5.8 mph9.3 kmh 30.16 in1021.3 mb - 0.00 in0.0 mm 0.01 in0.3 mm
10:50 AM 42.5°F5.8°C 38.6°F3.7°C 86% 5.8 mph SW9.3 kmh SW 6.9 mph11.1 kmh 30.16 in1021.3 mb - 0.00 in0.0 mm 0.01 in0.3 mm
10:45 AM 42.3°F5.7°C 38.4°F3.6°C 86% 4.6 mph WSW7.4 kmh WSW 8.1 mph13.0 kmh 30.16 in1021.3 mb - 0.00 in0.0 mm 0.01 in0.3 mm
10:40 AM 42.1°F5.6°C 38.5°F3.6°C 87% 5.8 mph WSW9.3 kmh WSW 6.9 mph11.1 kmh 30.16 in1021.3 mb - 0.00 in0.0 mm 0.01 in0.3 mm
10:35 AM 42.1°F5.6°C 38.2°F3.4°C 86% 4.6 mph WSW7.4 kmh WSW 6.9 mph11.1 kmh 30.16 in1021.3 mb - 0.00 in0.0 mm 0.01 in0.3 mm
10:30 AM 41.8°F5.4°C 37.9°F3.3°C 86% 3.5 mph W5.6 kmh W 5.8 mph9.3 kmh 30.16 in1021.3 mb - 0.00 in0.0 mm 0.01 in0.3 mm
10:25 AM 41.6°F5.3°C 37.8°F3.2°C 86% 2.3 mph WSW3.7 kmh WSW 2.3 mph3.7 kmh 30.16 in1021.3 mb - 0.00 in0.0 mm 0.01 in0.3 mm
10:20 AM 41.3°F5.2°C 37.4°F3.0°C 86% 4.6 mph WSW7.4 kmh WSW 4.6 mph7.4 kmh 30.16 in1021.3 mb - 0.00 in0.0 mm 0.01 in0.3 mm
10:15 AM 41.3°F5.2°C 37.4°F3.0°C 86% 1.2 mph WSW1.9 kmh WSW -- 30.16 in1021.3 mb - 0.00 in0.0 mm 0.01 in0.3 mm
10:10 AM 41.3°F5.2°C 37.1°F2.8°C 85% 3.5 mph WSW5.6 kmh WSW 3.5 mph5.6 kmh 30.16 in1021.3 mb - 0.00 in0.0 mm 0.01 in0.3 mm
10:05 AM 41.3°F5.2°C 37.1°F2.8°C 85% 3.5 mph SW5.6 kmh SW 5.8 mph9.3 kmh 30.15 in1021.0 mb - 0.00 in0.0 mm 0.01 in0.3 mm
10:00 AM 41.4°F5.2°C 37.2°F2.9°C 85% 3.5 mph WSW5.6 kmh WSW 4.6 mph7.4 kmh 30.15 in1021.0 mb - 0.00 in0.0 mm 0.01 in0.3 mm
09:55 AM 41.1°F5.1°C 36.9°F2.7°C 85% Calm Calm 3.5 mph5.6 kmh 30.15 in1021.0 mb - 0.00 in0.0 mm 0.01 in0.3 mm
09:50 AM 40.7°F4.8°C 36.5°F2.5°C 85% 2.3 mph WSW3.7 kmh WSW 3.5 mph5.6 kmh 30.15 in1021.0 mb - 0.00 in0.0 mm 0.01 in0.3 mm
09:45 AM 40.4°F4.7°C 36.2°F2.3°C 85% 3.5 mph WSW5.6 kmh WSW 3.5 mph5.6 kmh 30.15 in1021.0 mb - 0.00 in0.0 mm 0.01 in0.3 mm
09:40 AM 40.2°F4.6°C 35.8°F2.1°C 84% Calm Calm -- 30.15 in1021.0 mb - 0.00 in0.0 mm 0.01 in0.3 mm
09:35 AM 40.0°F4.4°C 35.6°F2.0°C 84% Calm Calm -- 30.15 in1021.0 mb - 0.00 in0.0 mm 0.01 in0.3 mm
09:30 AM 39.8°F4.3°C 35.4°F1.9°C 84% Calm Calm -- 30.15 in1021.0 mb - 0.00 in0.0 mm 0.01 in0.3 mm
09:25 AM 39.8°F4.3°C 35.3°F1.8°C 84% Calm Calm -- 30.16 in1021.3 mb - 0.00 in0.0 mm 0.01 in0.3 mm
09:20 AM 39.7°F4.3°C 35.5°F1.9°C 85% Calm Calm -- 30.16 in1021.3 mb - 0.00 in0.0 mm 0.01 in0.3 mm
09:15 AM 39.5°F4.2°C 35.1°F1.7°C 84% Calm Calm -- 30.16 in1021.3 mb - 0.00 in0.0 mm 0.01 in0.3 mm
09:10 AM 39.4°F4.1°C 35.3°F1.8°C 85% Calm Calm -- 30.16 in1021.3 mb - 0.00 in0.0 mm 0.01 in0.3 mm
09:05 AM 39.3°F4.1°C 35.2°F1.8°C 85% 1.2 mph W1.9 kmh W 2.3 mph3.7 kmh 30.16 in1021.3 mb - 0.00 in0.0 mm 0.01 in0.3 mm
09:00 AM 39.2°F4.0°C 35.1°F1.7°C 85% 2.3 mph WSW3.7 kmh WSW 3.5 mph5.6 kmh 30.16 in1021.3 mb - 0.00 in0.0 mm 0.01 in0.3 mm
08:55 AM 39.2°F4.0°C 35.1°F1.7°C 85% 3.5 mph W5.6 kmh W 3.5 mph5.6 kmh 30.16 in1021.3 mb - 0.00 in0.0 mm 0.01 in0.3 mm
08:50 AM 39.2°F4.0°C 35.1°F1.7°C 85% Calm Calm -- 30.15 in1021.0 mb - 0.00 in0.0 mm 0.01 in0.3 mm
08:45 AM 39.1°F3.9°C 35.0°F1.7°C 85% 3.5 mph WSW5.6 kmh WSW 3.5 mph5.6 kmh 30.15 in1021.0 mb - 0.00 in0.0 mm 0.01 in0.3 mm
08:40 AM 39.1°F3.9°C 35.0°F1.7°C 85% 2.3 mph WSW3.7 kmh WSW 4.6 mph7.4 kmh 30.15 in1021.0 mb - 0.00 in0.0 mm 0.01 in0.3 mm
08:35 AM 39.1°F3.9°C 35.0°F1.7°C 85% Calm Calm -- 30.15 in1021.0 mb - 0.00 in0.0 mm 0.01 in0.3 mm
08:30 AM 39.1°F3.9°C 35.0°F1.7°C 85% Calm Calm 1.2 mph1.9 kmh 30.15 in1021.0 mb - 0.00 in0.0 mm 0.01 in0.3 mm
08:25 AM 39.1°F3.9°C 35.0°F1.7°C 85% Calm Calm -- 30.15 in1021.0 mb - 0.00 in0.0 mm 0.01 in0.3 mm
08:20 AM 39.1°F3.9°C 35.0°F1.7°C 85% Calm Calm -- 30.15 in1021.0 mb - 0.00 in0.0 mm 0.01 in0.3 mm
08:15 AM 39.1°F3.9°C 35.0°F1.7°C 85% Calm Calm -- 30.15 in1021.0 mb - 0.00 in0.0 mm 0.01 in0.3 mm
08:10 AM 39.1°F3.9°C 35.3°F1.8°C 86% Calm Calm -- 30.15 in1021.0 mb - 0.00 in0.0 mm 0.01 in0.3 mm
08:05 AM 39.1°F3.9°C 35.3°F1.8°C 86% Calm Calm -- 30.15 in1021.0 mb - 0.00 in0.0 mm 0.01 in0.3 mm
08:00 AM 39.1°F3.9°C 35.2°F1.8°C 86% Calm Calm -- 30.15 in1021.0 mb - 0.01 in0.3 mm 0.01 in0.3 mm
07:55 AM 39.0°F3.9°C 35.2°F1.8°C 86% Calm Calm -- 30.15 in1021.0 mb - 0.00 in0.0 mm 0.00 in0.0 mm
07:50 AM 39.0°F3.9°C 35.2°F1.8°C 86% Calm Calm -- 30.14 in1020.7 mb - 0.00 in0.0 mm 0.00 in0.0 mm
07:45 AM 39.0°F3.9°C 35.1°F1.7°C 86% Calm Calm 1.2 mph1.9 kmh 30.14 in1020.7 mb - 0.00 in0.0 mm 0.00 in0.0 mm
07:40 AM 38.9°F3.8°C 35.1°F1.7°C 86% 2.3 mph W3.7 kmh W 3.5 mph5.6 kmh 30.14 in1020.7 mb - 0.00 in0.0 mm 0.00 in0.0 mm
07:35 AM 38.8°F3.8°C 35.0°F1.7°C 86% 2.3 mph WSW3.7 kmh WSW 3.5 mph5.6 kmh 30.14 in1020.7 mb - 0.00 in0.0 mm 0.00 in0.0 mm
07:30 AM 38.8°F3.8°C 35.0°F1.7°C 86% 2.3 mph WSW3.7 kmh WSW 3.5 mph5.6 kmh 30.14 in1020.7 mb - 0.00 in0.0 mm 0.00 in0.0 mm
07:25 AM 38.8°F3.8°C 35.0°F1.7°C 86% 2.3 mph WSW3.7 kmh WSW 3.5 mph5.6 kmh 30.15 in1021.0 mb - 0.00 in0.0 mm 0.00 in0.0 mm
07:20 AM 38.8°F3.8°C 35.0°F1.7°C 86% Calm Calm 1.2 mph1.9 kmh 30.14 in1020.7 mb - 0.00 in0.0 mm 0.00 in0.0 mm
07:15 AM 38.8°F3.8°C 35.0°F1.7°C 86% Calm Calm 1.2 mph1.9 kmh 30.14 in1020.7 mb - 0.00 in0.0 mm 0.00 in0.0 mm
07:10 AM 38.8°F3.8°C 35.0°F1.7°C 86% Calm Calm 3.5 mph5.6 kmh 30.14 in1020.7 mb - 0.00 in0.0 mm 0.00 in0.0 mm
07:05 AM 38.9°F3.8°C 35.1°F1.7°C 86% 3.5 mph SW5.6 kmh SW 4.6 mph7.4 kmh 30.14 in1020.7 mb - 0.00 in0.0 mm 0.00 in0.0 mm
07:00 AM 39.0°F3.9°C 35.2°F1.8°C 86% 2.3 mph SW3.7 kmh SW 3.5 mph5.6 kmh 30.14 in1020.7 mb - 0.00 in0.0 mm 0.00 in0.0 mm
06:55 AM 39.1°F3.9°C 35.3°F1.8°C 86% 1.2 mph SW1.9 kmh SW 3.5 mph5.6 kmh 30.14 in1020.7 mb - 0.00 in0.0 mm 0.00 in0.0 mm
06:50 AM 39.2°F4.0°C 35.4°F1.9°C 86% 1.2 mph SW1.9 kmh SW 3.5 mph5.6 kmh 30.14 in1020.7 mb - 0.00 in0.0 mm 0.00 in0.0 mm
06:45 AM 39.3°F4.1°C 35.5°F1.9°C 86% 2.3 mph SW3.7 kmh SW 3.5 mph5.6 kmh 30.14 in1020.7 mb - 0.00 in0.0 mm 0.00 in0.0 mm
06:40 AM 39.4°F4.1°C 35.9°F2.2°C 87% 2.3 mph WSW3.7 kmh WSW 3.5 mph5.6 kmh 30.14 in1020.7 mb - 0.00 in0.0 mm 0.00 in0.0 mm
06:35 AM 39.6°F4.2°C 36.0°F2.2°C 87% 1.2 mph W1.9 kmh W 1.2 mph1.9 kmh 30.14 in1020.7 mb - 0.00 in0.0 mm 0.00 in0.0 mm
06:30 AM 39.8°F4.3°C 36.2°F2.3°C 87% Calm Calm -- 30.14 in1020.7 mb - 0.00 in0.0 mm 0.00 in0.0 mm
06:25 AM 40.0°F4.4°C 36.4°F2.4°C 87% Calm Calm -- 30.14 in1020.7 mb - 0.00 in0.0 mm 0.00 in0.0 mm
06:20 AM 40.1°F4.5°C 36.5°F2.5°C 87% Calm Calm -- 30.14 in1020.7 mb - 0.00 in0.0 mm 0.00 in0.0 mm
06:15 AM 40.2°F4.6°C 36.3°F2.4°C 86% Calm Calm -- 30.13 in1020.3 mb - 0.00 in0.0 mm 0.00 in0.0 mm
06:10 AM 40.3°F4.6°C 36.5°F2.5°C 86% Calm Calm -- 30.13 in1020.3 mb - 0.00 in0.0 mm 0.00 in0.0 mm
06:05 AM 40.5°F4.7°C 36.6°F2.6°C 86% Calm Calm -- 30.13 in1020.3 mb - 0.00 in0.0 mm 0.00 in0.0 mm
06:00 AM 40.6°F4.8°C 36.7°F2.6°C 86% Calm Calm -- 30.13 in1020.3 mb - 0.00 in0.0 mm 0.00 in0.0 mm
05:55 AM 40.6°F4.8°C 36.7°F2.6°C 86% 1.2 mph W1.9 kmh W 2.3 mph3.7 kmh 30.14 in1020.7 mb - 0.00 in0.0 mm 0.00 in0.0 mm
05:50 AM 40.7°F4.8°C 36.8°F2.7°C 86% 1.2 mph W1.9 kmh W 2.3 mph3.7 kmh 30.13 in1020.3 mb - 0.00 in0.0 mm 0.00 in0.0 mm
05:45 AM 40.7°F4.8°C 36.8°F2.7°C 86% 1.2 mph W1.9 kmh W 2.3 mph3.7 kmh 30.14 in1020.7 mb - 0.00 in0.0 mm 0.00 in0.0 mm
05:40 AM 40.7°F4.8°C 36.8°F2.7°C 86% 1.2 mph W1.9 kmh W 2.3 mph3.7 kmh 30.14 in1020.7 mb - 0.00 in0.0 mm 0.00 in0.0 mm
05:35 AM 40.7°F4.8°C 36.8°F2.7°C 86% Calm Calm -- 30.14 in1020.7 mb - 0.00 in0.0 mm 0.00 in0.0 mm
05:30 AM 40.7°F4.8°C 36.8°F2.7°C 86% 2.3 mph W3.7 kmh W 3.5 mph5.6 kmh 30.14 in1020.7 mb - 0.00 in0.0 mm 0.00 in0.0 mm
05:25 AM 40.7°F4.8°C 36.9°F2.7°C 86% Calm Calm 1.2 mph1.9 kmh 30.14 in1020.7 mb - 0.00 in0.0 mm 0.00 in0.0 mm
05:20 AM 40.8°F4.9°C 36.9°F2.7°C 86% Calm Calm -- 30.14 in1020.7 mb - 0.00 in0.0 mm 0.00 in0.0 mm
05:15 AM 40.7°F4.8°C 36.8°F2.7°C 86% 2.3 mph WSW3.7 kmh WSW 3.5 mph5.6 kmh 30.14 in1020.7 mb - 0.00 in0.0 mm 0.00 in0.0 mm
05:10 AM 40.7°F4.8°C 36.8°F2.7°C 86% 2.3 mph WSW3.7 kmh WSW 3.5 mph5.6 kmh 30.14 in1020.7 mb - 0.00 in0.0 mm 0.00 in0.0 mm
05:05 AM 40.7°F4.8°C 36.8°F2.7°C 86% 3.5 mph WSW5.6 kmh WSW 4.6 mph7.4 kmh 30.14 in1020.7 mb - 0.00 in0.0 mm 0.00 in0.0 mm
05:00 AM 40.6°F4.8°C 36.4°F2.4°C 85% 3.5 mph WSW5.6 kmh WSW 4.6 mph7.4 kmh 30.14 in1020.7 mb - 0.00 in0.0 mm 0.00 in0.0 mm
04:55 AM 40.6°F4.8°C 36.4°F2.4°C 85% Calm Calm -- 30.14 in1020.7 mb - 0.00 in0.0 mm 0.00 in0.0 mm
04:50 AM 40.5°F4.7°C 36.3°F2.4°C 85% 3.5 mph WSW5.6 kmh WSW 5.8 mph9.3 kmh 30.14 in1020.7 mb - 0.00 in0.0 mm 0.00 in0.0 mm
04:45 AM 40.4°F4.7°C 36.3°F2.4°C 85% 1.2 mph WSW1.9 kmh WSW 4.6 mph7.4 kmh 30.14 in1020.7 mb - 0.00 in0.0 mm 0.00 in0.0 mm
04:40 AM 40.4°F4.7°C 36.2°F2.3°C 85% 4.6 mph W7.4 kmh W 4.6 mph7.4 kmh 30.14 in1020.7 mb - 0.00 in0.0 mm 0.00 in0.0 mm
04:35 AM 40.3°F4.6°C 36.1°F2.3°C 85% 4.6 mph WSW7.4 kmh WSW 5.8 mph9.3 kmh 30.14 in1020.7 mb - 0.00 in0.0 mm 0.00 in0.0 mm
04:30 AM 40.2°F4.6°C 36.1°F2.3°C 85% 3.5 mph WSW5.6 kmh WSW 5.8 mph9.3 kmh 30.14 in1020.7 mb - 0.00 in0.0 mm 0.00 in0.0 mm
04:25 AM 40.2°F4.6°C 36.1°F2.3°C 85% 4.6 mph WSW7.4 kmh WSW 6.9 mph11.1 kmh 30.14 in1020.7 mb - 0.00 in0.0 mm 0.00 in0.0 mm
04:20 AM 40.1°F4.5°C 36.0°F2.2°C 85% 3.5 mph W5.6 kmh W 5.8 mph9.3 kmh 30.14 in1020.7 mb - 0.00 in0.0 mm 0.00 in0.0 mm
04:15 AM 40.1°F4.5°C 36.0°F2.2°C 85% 2.3 mph W3.7 kmh W 3.5 mph5.6 kmh 30.14 in1020.7 mb - 0.00 in0.0 mm 0.00 in0.0 mm
04:10 AM 40.0°F4.4°C 35.9°F2.2°C 85% Calm Calm -- 30.14 in1020.7 mb - 0.00 in0.0 mm 0.00 in0.0 mm
04:05 AM 40.1°F4.5°C 35.9°F2.2°C 85% Calm Calm -- 30.14 in1020.7 mb - 0.00 in0.0 mm 0.00 in0.0 mm
04:00 AM 40.1°F4.5°C 36.0°F2.2°C 85% Calm Calm -- 30.14 in1020.7 mb - 0.00 in0.0 mm 0.00 in0.0 mm
03:55 AM 40.2°F4.6°C 36.1°F2.3°C 85% Calm Calm -- 30.14 in1020.7 mb - 0.00 in0.0 mm 0.00 in0.0 mm
03:50 AM 40.2°F4.6°C 36.1°F2.3°C 85% Calm Calm -- 30.14 in1020.7 mb - 0.00 in0.0 mm 0.00 in0.0 mm
03:45 AM 40.3°F4.6°C 36.1°F2.3°C 85% Calm Calm -- 30.15 in1021.0 mb - 0.00 in0.0 mm 0.00 in0.0 mm
03:40 AM 40.4°F4.7°C 36.2°F2.3°C 85% Calm Calm -- 30.15 in1021.0 mb - 0.00 in0.0 mm 0.00 in0.0 mm
03:35 AM 40.4°F4.7°C 36.2°F2.3°C 85% Calm Calm -- 30.15 in1021.0 mb - 0.00 in0.0 mm 0.00 in0.0 mm
03:30 AM 40.4°F4.7°C 36.3°F2.4°C 85% Calm Calm -- 30.15 in1021.0 mb - 0.00 in0.0 mm 0.00 in0.0 mm
03:25 AM 40.5°F4.7°C 36.3°F2.4°C 85% Calm Calm -- 30.15 in1021.0 mb - 0.00 in0.0 mm 0.00 in0.0 mm
03:20 AM 40.5°F4.7°C 36.3°F2.4°C 85% Calm Calm -- 30.15 in1021.0 mb - 0.00 in0.0 mm 0.00 in0.0 mm
03:15 AM 40.5°F4.7°C 36.3°F2.4°C 85% Calm Calm -- 30.15 in1021.0 mb - 0.00 in0.0 mm 0.00 in0.0 mm
03:10 AM 40.5°F4.7°C 36.3°F2.4°C 85% Calm Calm -- 30.15 in1021.0 mb - 0.00 in0.0 mm 0.00 in0.0 mm
03:05 AM 40.5°F4.7°C 36.3°F2.4°C 85% Calm Calm -- 30.15 in1021.0 mb - 0.00 in0.0 mm 0.00 in0.0 mm
03:00 AM 40.6°F4.8°C 36.4°F2.4°C 85% Calm Calm -- 30.16 in1021.3 mb - 0.00 in0.0 mm 0.00 in0.0 mm
02:55 AM 40.6°F4.8°C 36.4°F2.4°C 85% Calm Calm -- 30.16 in1021.3 mb - 0.00 in0.0 mm 0.00 in0.0 mm
02:50 AM 40.6°F4.8°C 36.7°F2.6°C 86% 1.2 mph SW1.9 kmh SW 3.5 mph5.6 kmh 30.16 in1021.3 mb - 0.00 in0.0 mm 0.00 in0.0 mm
02:45 AM 40.6°F4.8°C 36.8°F2.7°C 86% 2.3 mph SW3.7 kmh SW 3.5 mph5.6 kmh 30.16 in1021.3 mb - 0.00 in0.0 mm 0.00 in0.0 mm
02:40 AM 40.7°F4.8°C 36.8°F2.7°C 86% Calm Calm 4.6 mph7.4 kmh 30.16 in1021.3 mb - 0.00 in0.0 mm 0.00 in0.0 mm
02:35 AM 40.7°F4.8°C 36.8°F2.7°C 86% 3.5 mph SW5.6 kmh SW 3.5 mph5.6 kmh 30.16 in1021.3 mb - 0.00 in0.0 mm 0.00 in0.0 mm
02:30 AM 40.7°F4.8°C 36.8°F2.7°C 86% 2.3 mph WSW3.7 kmh WSW 3.5 mph5.6 kmh 30.16 in1021.3 mb - 0.00 in0.0 mm 0.00 in0.0 mm
02:25 AM 40.7°F4.8°C 36.8°F2.7°C 86% 2.3 mph WSW3.7 kmh WSW 4.6 mph7.4 kmh 30.16 in1021.3 mb - 0.00 in0.0 mm 0.00 in0.0 mm
02:20 AM 40.7°F4.8°C 36.8°F2.7°C 86% Calm Calm 1.2 mph1.9 kmh 30.16 in1021.3 mb - 0.00 in0.0 mm 0.00 in0.0 mm
02:15 AM 40.8°F4.9°C 36.9°F2.7°C 86% Calm Calm -- 30.16 in1021.3 mb - 0.00 in0.0 mm 0.00 in0.0 mm
02:10 AM 40.8°F4.9°C 37.0°F2.8°C 86% Calm Calm -- 30.16 in1021.3 mb - 0.00 in0.0 mm 0.00 in0.0 mm
02:05 AM 41.0°F5.0°C 37.4°F3.0°C 87% 2.3 mph WSW3.7 kmh WSW 3.5 mph5.6 kmh 30.16 in1021.3 mb - 0.00 in0.0 mm 0.00 in0.0 mm
02:00 AM 41.1°F5.1°C 37.2°F2.9°C 86% 4.6 mph SW7.4 kmh SW 5.8 mph9.3 kmh 30.16 in1021.3 mb - 0.00 in0.0 mm 0.00 in0.0 mm
01:55 AM 41.2°F5.1°C 37.3°F2.9°C 86% 2.3 mph SW3.7 kmh SW 3.5 mph5.6 kmh 30.16 in1021.3 mb - 0.00 in0.0 mm 0.00 in0.0 mm
01:50 AM 41.2°F5.1°C 37.3°F2.9°C 86% 1.2 mph WSW1.9 kmh WSW 3.5 mph5.6 kmh 30.16 in1021.3 mb - 0.00 in0.0 mm 0.00 in0.0 mm
01:45 AM 41.2°F5.1°C 37.3°F2.9°C 86% 1.2 mph WSW1.9 kmh WSW 3.5 mph5.6 kmh 30.16 in1021.3 mb - 0.00 in0.0 mm 0.00 in0.0 mm
01:40 AM 41.1°F5.1°C 37.3°F2.9°C 86% 1.2 mph WSW1.9 kmh WSW 1.2 mph1.9 kmh 30.16 in1021.3 mb - 0.00 in0.0 mm 0.00 in0.0 mm
01:35 AM 41.1°F5.1°C 37.2°F2.9°C 86% 2.3 mph W3.7 kmh W 3.5 mph5.6 kmh 30.16 in1021.3 mb - 0.00 in0.0 mm 0.00 in0.0 mm
01:30 AM 41.1°F5.1°C 37.2°F2.9°C 86% Calm Calm -- 30.16 in1021.3 mb - 0.00 in0.0 mm 0.00 in0.0 mm
01:25 AM 41.1°F5.1°C 37.2°F2.9°C 86% Calm Calm -- 30.16 in1021.3 mb - 0.00 in0.0 mm 0.00 in0.0 mm
01:20 AM 41.0°F5.0°C 37.1°F2.8°C 86% Calm Calm -- 30.16 in1021.3 mb - 0.00 in0.0 mm 0.00 in0.0 mm
01:15 AM 41.0°F5.0°C 37.1°F2.8°C 86% Calm Calm -- 30.17 in1021.7 mb - 0.00 in0.0 mm 0.00 in0.0 mm
01:10 AM 41.0°F5.0°C 37.2°F2.9°C 86% Calm Calm -- 30.17 in1021.7 mb - 0.00 in0.0 mm 0.00 in0.0 mm
01:05 AM 41.1°F5.1°C 37.2°F2.9°C 86% Calm Calm -- 30.17 in1021.7 mb - 0.00 in0.0 mm 0.00 in0.0 mm
01:00 AM 41.1°F5.1°C 37.2°F2.9°C 86% 3.5 mph W5.6 kmh W 3.5 mph5.6 kmh 30.17 in1021.7 mb - 0.00 in0.0 mm 0.00 in0.0 mm
12:55 AM 41.1°F5.1°C 37.2°F2.9°C 86% 2.3 mph WSW3.7 kmh WSW 3.5 mph5.6 kmh 30.17 in1021.7 mb - 0.00 in0.0 mm 0.00 in0.0 mm
12:50 AM 41.2°F5.1°C 37.3°F2.9°C 86% Calm Calm -- 30.18 in1022.0 mb - 0.00 in0.0 mm 0.00 in0.0 mm
12:45 AM 41.2°F5.1°C 37.3°F2.9°C 86% 2.3 mph WSW3.7 kmh WSW 3.5 mph5.6 kmh 30.18 in1022.0 mb - 0.00 in0.0 mm 0.00 in0.0 mm
12:40 AM 41.3°F5.2°C 37.4°F3.0°C 86% Calm Calm -- 30.18 in1022.0 mb - 0.00 in0.0 mm 0.00 in0.0 mm
12:35 AM 41.3°F5.2°C 37.4°F3.0°C 86% 1.2 mph SW1.9 kmh SW 3.5 mph5.6 kmh 30.18 in1022.0 mb - 0.00 in0.0 mm 0.00 in0.0 mm
12:30 AM 41.4°F5.2°C 37.5°F3.1°C 86% 2.3 mph SW3.7 kmh SW 4.6 mph7.4 kmh 30.18 in1022.0 mb - 0.00 in0.0 mm 0.00 in0.0 mm
12:25 AM 41.5°F5.3°C 37.6°F3.1°C 86% Calm Calm -- 30.18 in1022.0 mb - 0.00 in0.0 mm 0.00 in0.0 mm
12:20 AM 41.5°F5.3°C 37.6°F3.1°C 86% Calm Calm -- 30.18 in1022.0 mb - 0.00 in0.0 mm 0.00 in0.0 mm
12:15 AM 41.6°F5.3°C 37.7°F3.2°C 86% Calm Calm -- 30.18 in1022.0 mb - 0.00 in0.0 mm 0.00 in0.0 mm
12:10 AM 41.6°F5.3°C 37.7°F3.2°C 86% Calm Calm -- 30.18 in1022.0 mb - 0.00 in0.0 mm 0.00 in0.0 mm
12:05 AM 41.6°F5.3°C 37.7°F3.2°C 86% Calm Calm -- 30.18 in1022.0 mb - 0.00 in0.0 mm 0.00 in0.0 mm
12:00 AM 41.7°F5.4°C 37.8°F3.2°C 86% Calm Calm -- 30.18 in1022.0 mb - 0.00 in0.0 mm 0.00 in0.0 mm